createdAt,value
2023-02-25T00:01:51.232Z,66.91
2023-02-25T00:04:29.855Z,66.69
2023-02-25T00:06:57.911Z,66.73
2023-02-25T00:09:25.867Z,66.58
2023-02-25T00:11:54.085Z,67.06
2023-02-25T00:14:22.132Z,67.04
2023-02-25T00:16:50.882Z,66.89
2023-02-25T00:19:18.888Z,66.65
2023-02-25T00:21:48.237Z,66.26
2023-02-25T00:24:17.157Z,66.29
2023-02-25T00:26:45.482Z,66.63
2023-02-25T00:29:15.625Z,67.66
2023-02-25T00:31:43.961Z,67.38
2023-02-25T00:34:12.115Z,66.94
2023-02-25T00:36:40.675Z,66.85
2023-02-25T00:39:11.994Z,66.18
2023-02-25T00:41:40.189Z,66.10
2023-02-25T00:44:08.644Z,65.75
2023-02-25T00:46:36.785Z,65.54
2023-02-25T00:49:06.780Z,65.55
2023-02-25T00:51:34.883Z,65.18
2023-02-25T00:54:03.631Z,65.10
2023-02-25T00:56:32.983Z,64.84
2023-02-25T00:59:01.389Z,64.85
2023-02-25T01:01:33.780Z,65.17
2023-02-25T01:04:02.551Z,64.97
2023-02-25T01:06:32.947Z,64.97
2023-02-25T01:09:01.938Z,65.32
2023-02-25T01:11:34.343Z,65.44
2023-02-25T01:14:05.780Z,65.43
2023-02-25T01:16:36.118Z,64.69
2023-02-25T01:19:09.606Z,64.22
2023-02-25T01:21:41.016Z,63.72
2023-02-25T01:24:13.587Z,63.68
2023-02-25T01:26:45.524Z,63.32
2023-02-25T01:29:17.212Z,63.16
2023-02-25T01:31:46.308Z,62.92
2023-02-25T01:34:17.038Z,63.16
2023-02-25T01:36:46.791Z,63.44
2023-02-25T01:39:17.350Z,63.42
2023-02-25T01:41:48.716Z,63.63
2023-02-25T01:44:19.798Z,63.86
2023-02-25T01:46:50.482Z,64.44
2023-02-25T01:49:22.993Z,63.93
2023-02-25T01:51:56.468Z,63.45
2023-02-25T01:54:24.646Z,63.92
2023-02-25T01:56:56.777Z,63.87
2023-02-25T01:59:29.913Z,63.86
2023-02-25T02:01:58.780Z,64.22
2023-02-25T02:04:27.821Z,63.96
2023-02-25T02:06:56.798Z,64.15
2023-02-25T02:09:28.568Z,63.64
2023-02-25T02:12:00.147Z,64.19
2023-02-25T02:14:31.418Z,64.40
2023-02-25T02:17:27.258Z,64.13
2023-02-25T02:20:13.971Z,64.86
2023-02-25T02:22:55.140Z,64.88
2023-02-25T02:26:12.223Z,64.68
2023-02-25T02:29:18.280Z,64.65
2023-02-25T02:31:59.586Z,64.59
2023-02-25T02:34:40.747Z,64.70
2023-02-25T02:37:26.473Z,64.44
2023-02-25T02:40:06.625Z,64.04
2023-02-25T02:42:45.811Z,63.38
2023-02-25T02:45:23.487Z,62.48
2023-02-25T02:47:58.975Z,62.26
2023-02-25T02:50:34.761Z,62.77
2023-02-25T02:53:09.369Z,62.00
2023-02-25T02:55:42.144Z,61.67
2023-02-25T02:58:17.862Z,61.37
2023-02-25T03:00:50.934Z,61.12
2023-02-25T03:03:36.356Z,60.42
2023-02-25T03:06:09.527Z,60.53
2023-02-25T03:08:45.862Z,60.44
2023-02-25T03:11:15.264Z,60.38
2023-02-25T03:13:46.588Z,60.17
2023-02-25T03:16:22.543Z,60.50
2023-02-25T03:18:59.614Z,60.16
2023-02-25T03:21:36.295Z,59.93
2023-02-25T03:24:09.369Z,60.26
2023-02-25T03:26:38.584Z,60.82
2023-02-25T03:29:06.667Z,61.14
2023-02-25T03:31:42.382Z,61.02
2023-02-25T03:34:19.037Z,61.08
2023-02-25T03:36:54.830Z,61.88
2023-02-25T03:39:28.018Z,62.00
2023-02-25T03:42:00.239Z,62.45
2023-02-25T03:44:35.993Z,61.88
2023-02-25T03:47:07.994Z,61.99
2023-02-25T03:49:45.083Z,61.77
2023-02-25T03:52:17.861Z,62.40
2023-02-25T03:54:52.383Z,62.30
2023-02-25T03:57:24.979Z,62.73
2023-02-25T03:59:56.267Z,62.93
2023-02-25T04:02:30.473Z,62.52
2023-02-25T04:05:00.140Z,62.53
2023-02-25T04:07:29.032Z,62.85
2023-02-25T04:09:57.455Z,62.84
2023-02-25T04:12:28.453Z,63.50
2023-02-25T04:14:56.768Z,62.86
2023-02-25T04:17:25.184Z,63.20
2023-02-25T04:19:53.489Z,62.64
2023-02-25T04:22:23.823Z,62.88
2023-02-25T04:24:52.071Z,62.66
2023-02-25T04:27:20.426Z,62.27
2023-02-25T04:29:48.595Z,61.68
2023-02-25T04:32:16.763Z,61.55
2023-02-25T04:34:44.828Z,60.41
2023-02-25T04:37:13.125Z,60.88
2023-02-25T04:39:42.543Z,61.15
2023-02-25T04:42:10.921Z,60.34
2023-02-25T04:44:39.106Z,60.20
2023-02-25T04:47:07.168Z,59.69
2023-02-25T04:49:44.628Z,58.95
2023-02-25T04:52:13.684Z,59.32
2023-02-25T04:54:43.150Z,58.93
2023-02-25T04:57:13.307Z,58.99
2023-02-25T04:59:41.815Z,58.96
2023-02-25T05:02:10.785Z,58.57
2023-02-25T05:04:40.414Z,58.97
2023-02-25T05:07:08.957Z,59.06
2023-02-25T05:09:37.016Z,58.70
2023-02-25T05:12:07.663Z,59.27
2023-02-25T05:14:35.745Z,58.47
2023-02-25T05:17:04.661Z,58.47
2023-02-25T05:19:32.917Z,59.27
2023-02-25T05:22:00.970Z,58.94
2023-02-25T05:24:28.949Z,59.26
2023-02-25T05:26:56.994Z,59.16
2023-02-25T05:29:26.392Z,59.08
2023-02-25T05:31:55.130Z,58.81
2023-02-25T05:34:23.312Z,59.45
2023-02-25T05:36:51.380Z,59.80
2023-02-25T05:39:19.377Z,59.18
2023-02-25T05:41:48.917Z,59.96
2023-02-25T05:44:16.948Z,60.12
2023-02-25T05:46:46.404Z,59.62
2023-02-25T05:49:14.550Z,59.80
2023-02-25T05:51:42.582Z,59.77
2023-02-25T05:54:10.963Z,60.31
2023-02-25T05:56:39.106Z,60.01
2023-02-25T05:59:07.192Z,59.30
2023-02-25T06:01:35.224Z,59.92
2023-02-25T06:04:05.272Z,59.40
2023-02-25T06:06:33.401Z,59.93
2023-02-25T06:09:01.492Z,60.32
2023-02-25T06:11:31.491Z,59.72
2023-02-25T06:14:00.666Z,60.14
2023-02-25T06:16:31.938Z,59.67
2023-02-25T06:19:01.481Z,59.32
2023-02-25T06:21:31.452Z,59.29
2023-02-25T06:23:59.702Z,59.87
2023-02-25T06:26:28.153Z,59.95
2023-02-25T06:28:56.672Z,59.90
2023-02-25T06:31:26.176Z,59.81
2023-02-25T06:33:55.801Z,59.88
2023-02-25T06:36:24.403Z,58.80
2023-02-25T06:38:53.965Z,59.41
2023-02-25T06:41:23.816Z,60.11
2023-02-25T06:43:52.894Z,59.60
2023-02-25T06:46:23.728Z,59.68
2023-02-25T06:48:52.026Z,59.03
2023-02-25T06:51:20.129Z,59.13
2023-02-25T06:53:48.627Z,58.76
2023-02-25T06:56:20.486Z,59.20
2023-02-25T06:58:48.972Z,58.25
2023-02-25T07:01:17.881Z,58.76
2023-02-25T07:03:46.262Z,59.15
2023-02-25T07:06:15.718Z,58.30
2023-02-25T07:08:43.830Z,58.53
2023-02-25T07:11:29.098Z,58.48
2023-02-25T07:13:57.359Z,58.17
2023-02-25T07:16:25.678Z,58.46
2023-02-25T07:18:54.207Z,58.51
2023-02-25T07:21:22.975Z,58.53
2023-02-25T07:23:51.585Z,59.07
2023-02-25T07:26:20.999Z,58.81
2023-02-25T07:28:49.156Z,57.90
2023-02-25T07:31:21.904Z,57.18
2023-02-25T07:33:50.552Z,57.09
2023-02-25T07:36:18.988Z,57.12
2023-02-25T07:38:48.512Z,57.76
2023-02-25T07:41:20.761Z,57.57
2023-02-25T07:43:49.253Z,57.12
2023-02-25T07:46:17.332Z,55.97
2023-02-25T07:48:45.370Z,56.02
2023-02-25T07:51:17.182Z,56.38
2023-02-25T07:53:45.548Z,56.57
2023-02-25T07:56:14.452Z,57.09
2023-02-25T07:58:44.030Z,56.65
2023-02-25T08:01:13.802Z,56.27
2023-02-25T08:03:41.893Z,55.97
2023-02-25T08:06:09.908Z,54.93
2023-02-25T08:08:38.808Z,54.44
2023-02-25T08:11:08.416Z,55.61
2023-02-25T08:13:37.286Z,54.73
2023-02-25T08:16:08.627Z,54.16
2023-02-25T08:18:37.631Z,53.40
2023-02-25T08:21:06.509Z,53.77
2023-02-25T08:23:34.539Z,54.16
2023-02-25T08:26:03.875Z,54.80
2023-02-25T08:28:34.924Z,55.11
2023-02-25T08:31:10.334Z,54.86
2023-02-25T08:33:40.277Z,55.26
2023-02-25T08:36:12.660Z,54.87
2023-02-25T08:38:41.106Z,55.38
2023-02-25T08:41:09.809Z,54.39
2023-02-25T08:43:38.635Z,54.96
2023-02-25T08:46:08.712Z,54.68
2023-02-25T08:48:38.034Z,53.83
2023-02-25T08:51:09.025Z,54.58
2023-02-25T08:53:38.670Z,55.44
2023-02-25T08:56:07.174Z,55.17
2023-02-25T08:58:35.393Z,54.32
2023-02-25T09:01:12.955Z,53.12
2023-02-25T09:03:52.677Z,52.42
2023-02-25T09:06:23.610Z,53.35
2023-02-25T09:08:53.139Z,51.93
2023-02-25T09:11:22.032Z,51.55
2023-02-25T09:13:50.218Z,51.75
2023-02-25T09:16:20.178Z,50.62
2023-02-25T09:18:51.313Z,48.92
2023-02-25T09:21:20.975Z,49.63
2023-02-25T09:23:51.299Z,49.06
2023-02-25T09:26:20.601Z,48.82
2023-02-25T09:28:49.358Z,49.55
2023-02-25T09:31:19.730Z,48.64
2023-02-25T09:33:47.881Z,48.37
2023-02-25T09:36:18.786Z,49.30
2023-02-25T09:38:49.172Z,48.02
2023-02-25T09:41:28.797Z,46.30
2023-02-25T09:44:06.343Z,46.99
2023-02-25T09:46:41.670Z,47.27
2023-02-25T09:49:19.696Z,47.51
2023-02-25T09:51:56.744Z,46.82
2023-02-25T09:54:31.134Z,47.39
2023-02-25T09:57:01.976Z,47.16
2023-02-25T09:59:30.958Z,48.08
2023-02-25T10:02:17.300Z,46.86
2023-02-25T10:04:56.317Z,46.63
2023-02-25T10:07:28.671Z,47.97
2023-02-25T10:10:08.278Z,46.26
2023-02-25T10:12:50.378Z,47.50
2023-02-25T10:15:51.969Z,47.19
2023-02-25T10:18:39.605Z,47.10
2023-02-25T10:21:22.052Z,47.34
2023-02-25T10:24:06.633Z,47.22
2023-02-25T10:26:39.007Z,47.22
2023-02-25T10:29:13.021Z,46.83
2023-02-25T10:31:43.956Z,46.57
2023-02-25T10:34:23.383Z,47.63
2023-02-25T10:36:56.425Z,47.33
2023-02-25T10:39:26.058Z,47.21
2023-02-25T10:41:54.224Z,46.29
2023-02-25T10:44:22.380Z,46.74
2023-02-25T10:46:56.608Z,46.60
2023-02-25T10:49:28.371Z,45.85
2023-02-25T10:52:03.089Z,45.63
2023-02-25T10:54:33.492Z,45.87
2023-02-25T10:57:08.299Z,45.52
2023-02-25T10:59:39.445Z,47.13
2023-02-25T11:02:25.673Z,46.43
2023-02-25T11:04:56.323Z,47.64
2023-02-25T11:07:31.989Z,47.24
2023-02-25T11:10:16.238Z,47.23
2023-02-25T11:12:47.333Z,46.54
2023-02-25T11:15:43.082Z,46.25
2023-02-25T11:18:22.438Z,47.46
2023-02-25T11:20:55.836Z,46.46
2023-02-25T11:23:30.535Z,46.79
2023-02-25T11:25:58.850Z,46.72
2023-02-25T11:28:32.216Z,46.45
2023-02-25T11:31:13.715Z,46.83
2023-02-25T11:33:46.510Z,46.56
2023-02-25T11:36:24.194Z,47.17
2023-02-25T11:39:08.419Z,47.42
2023-02-25T11:41:36.415Z,47.49
2023-02-25T11:44:22.803Z,47.74
2023-02-25T11:47:04.239Z,47.92
2023-02-25T11:50:07.113Z,48.14
2023-02-25T11:52:44.591Z,48.06
2023-02-25T11:55:26.068Z,48.10
2023-02-25T11:58:11.042Z,47.97
2023-02-25T12:00:48.428Z,47.96
2023-02-25T12:03:50.497Z,48.59
2023-02-25T12:06:35.100Z,48.71
2023-02-25T12:09:59.629Z,50.05
2023-02-25T12:13:13.619Z,50.17
2023-02-25T12:16:35.644Z,50.03
2023-02-25T12:20:05.617Z,50.14
2023-02-25T12:23:20.664Z,49.89
2023-02-25T12:25:56.570Z,49.39
2023-02-25T12:28:49.731Z,49.72
2023-02-25T12:32:13.144Z,49.45
2023-02-25T12:35:23.991Z,49.93
2023-02-25T12:38:51.256Z,49.14
2023-02-25T12:41:38.245Z,49.80
2023-02-25T12:44:36.086Z,49.40
2023-02-25T12:47:21.404Z,49.93
2023-02-25T12:50:24.870Z,50.30
2023-02-25T12:53:13.613Z,50.86
2023-02-25T12:56:05.694Z,51.04
2023-02-25T12:58:49.228Z,51.99
2023-02-25T13:01:39.139Z,51.70
2023-02-25T13:04:52.905Z,52.80
2023-02-25T13:07:44.042Z,53.66
2023-02-25T13:10:42.141Z,54.28
2023-02-25T13:14:02.795Z,54.60
2023-02-25T13:16:59.405Z,55.11
2023-02-25T13:20:19.437Z,55.63
2023-02-25T13:23:03.391Z,55.78
2023-02-25T13:25:53.713Z,55.84
2023-02-25T13:28:53.743Z,55.30
2023-02-25T13:31:36.039Z,55.68
2023-02-25T13:34:19.896Z,54.50
2023-02-25T13:37:15.733Z,54.08
2023-02-25T13:40:16.986Z,53.68
2023-02-25T13:43:09.094Z,53.76
2023-02-25T13:46:27.370Z,51.45
2023-02-25T13:49:25.962Z,51.13
2023-02-25T13:52:25.309Z,51.17
2023-02-25T13:55:23.973Z,50.86
2023-02-25T13:58:13.587Z,50.87
2023-02-25T14:01:13.674Z,50.13
2023-02-25T14:04:39.615Z,50.14
2023-02-25T14:07:39.923Z,49.07
2023-02-25T14:10:31.182Z,49.37
2023-02-25T14:13:29.441Z,49.42
2023-02-25T14:16:08.644Z,48.32
2023-02-25T14:18:51.549Z,48.19
2023-02-25T14:21:54.162Z,48.39
2023-02-25T14:24:32.338Z,48.44
2023-02-25T14:27:17.204Z,48.74
2023-02-25T14:30:07.714Z,48.59
2023-02-25T14:32:57.581Z,48.70
2023-02-25T14:35:46.919Z,48.84
2023-02-25T14:38:21.110Z,49.32
2023-02-25T14:40:57.799Z,48.83
2023-02-25T14:43:33.178Z,49.33
2023-02-25T14:46:10.516Z,49.35
2023-02-25T14:48:48.524Z,49.18
2023-02-25T14:52:27.448Z,48.45
2023-02-25T14:55:45.895Z,48.33
2023-02-25T14:59:01.549Z,47.89
2023-02-25T15:02:00.534Z,47.77
2023-02-25T15:05:16.301Z,47.33
2023-02-25T15:08:06.565Z,48.02
2023-02-25T15:10:48.316Z,48.08
2023-02-25T15:14:04.091Z,47.77
2023-02-25T15:17:28.762Z,47.69
2023-02-25T15:20:32.890Z,47.57
2023-02-25T15:23:11.812Z,47.43
2023-02-25T15:25:47.877Z,47.71
2023-02-25T15:28:42.345Z,47.17
2023-02-25T15:31:39.866Z,47.28
2023-02-25T15:34:35.540Z,47.51
2023-02-25T15:37:36.294Z,47.56
2023-02-25T15:40:45.914Z,47.99
2023-02-25T15:43:43.416Z,47.63
2023-02-25T15:46:45.230Z,47.89
2023-02-25T15:49:28.896Z,48.21
2023-02-25T15:52:00.057Z,47.56
2023-02-25T15:54:51.096Z,47.60
2023-02-25T15:57:38.980Z,48.71
2023-02-25T16:00:52.180Z,48.78
2023-02-25T16:03:42.053Z,48.69
2023-02-25T16:06:18.932Z,49.31
2023-02-25T16:09:06.305Z,50.37
2023-02-25T16:11:40.799Z,52.37
2023-02-25T16:14:18.517Z,53.39
2023-02-25T16:16:53.444Z,53.54
2023-02-25T16:19:26.408Z,53.92
2023-02-25T16:21:59.977Z,54.80
2023-02-25T16:24:29.126Z,55.54
2023-02-25T16:27:02.767Z,54.98
2023-02-25T16:29:52.567Z,55.05
2023-02-25T16:32:34.733Z,54.91
2023-02-25T16:35:10.594Z,55.21
2023-02-25T16:37:51.070Z,55.11
2023-02-25T16:40:28.762Z,55.52
2023-02-25T16:43:00.038Z,55.51
2023-02-25T16:45:32.871Z,54.76
2023-02-25T16:48:06.767Z,54.71
2023-02-25T16:50:37.133Z,54.54
2023-02-25T16:53:05.579Z,55.10
2023-02-25T16:55:41.361Z,55.26
2023-02-25T16:58:24.875Z,55.10
2023-02-25T17:00:55.508Z,55.34
2023-02-25T17:03:26.184Z,55.42
2023-02-25T17:06:05.252Z,55.70
2023-02-25T17:08:33.822Z,55.16
2023-02-25T17:11:05.678Z,55.08
2023-02-25T17:13:41.146Z,55.59
2023-02-25T17:16:21.211Z,55.29
2023-02-25T17:18:54.458Z,55.09
2023-02-25T17:21:28.410Z,55.43
2023-02-25T17:23:59.122Z,55.43
2023-02-25T17:26:27.380Z,55.79
2023-02-25T17:29:00.275Z,55.47
2023-02-25T17:31:31.212Z,54.84
2023-02-25T17:34:02.625Z,54.70
2023-02-25T17:36:35.335Z,54.45
2023-02-25T17:39:07.059Z,55.23
2023-02-25T17:41:35.840Z,56.89
2023-02-25T17:44:05.558Z,57.67
2023-02-25T17:46:38.190Z,58.80
2023-02-25T17:49:21.213Z,59.91
2023-02-25T17:51:55.215Z,59.66
2023-02-25T17:54:26.716Z,60.32
2023-02-25T17:57:01.604Z,61.25
2023-02-25T17:59:38.878Z,59.95
2023-02-25T18:02:30.924Z,61.60
2023-02-25T18:05:23.430Z,60.85
2023-02-25T18:08:10.012Z,60.00
2023-02-25T18:10:46.937Z,60.29
2023-02-25T18:13:27.998Z,60.58
2023-02-25T18:16:44.680Z,60.23
2023-02-25T18:19:28.774Z,59.88
2023-02-25T18:21:56.997Z,60.70
2023-02-25T18:24:29.731Z,59.85
2023-02-25T18:27:37.662Z,59.17
2023-02-25T18:30:24.100Z,59.75
2023-02-25T18:32:59.202Z,59.37
2023-02-25T18:35:29.462Z,59.49
2023-02-25T18:37:59.563Z,59.49
2023-02-25T18:40:30.873Z,59.53
2023-02-25T18:43:00.614Z,59.68
2023-02-25T18:45:31.182Z,59.91
2023-02-25T18:48:01.716Z,59.45
2023-02-25T18:50:32.155Z,59.08
2023-02-25T18:53:00.978Z,58.99
2023-02-25T18:55:32.100Z,58.83
2023-02-25T18:58:02.128Z,58.65
2023-02-25T19:00:31.721Z,58.91
2023-02-25T19:03:03.680Z,58.16
2023-02-25T19:05:36.607Z,58.44
2023-02-25T19:08:14.112Z,59.09
2023-02-25T19:10:43.595Z,59.12
2023-02-25T19:13:19.278Z,58.37
2023-02-25T19:15:47.654Z,58.64
2023-02-25T19:18:17.755Z,57.83
2023-02-25T19:20:46.272Z,58.52
2023-02-25T19:23:17.180Z,58.56
2023-02-25T19:25:47.743Z,58.32
2023-02-25T19:28:15.874Z,57.73
2023-02-25T19:30:45.507Z,57.34
2023-02-25T19:33:15.679Z,57.65
2023-02-25T19:35:45.122Z,56.99
2023-02-25T19:38:16.948Z,57.53
2023-02-25T19:40:46.329Z,56.76
2023-02-25T19:43:15.251Z,57.01
2023-02-25T19:45:43.498Z,57.19
2023-02-25T19:48:11.844Z,55.80
2023-02-25T19:50:42.930Z,55.96
2023-02-25T19:53:11.185Z,55.21
2023-02-25T19:55:39.374Z,56.48
2023-02-25T19:58:07.534Z,54.34
2023-02-25T20:00:35.631Z,54.88
2023-02-25T20:03:03.676Z,54.85
2023-02-25T20:05:34.855Z,54.90
2023-02-25T20:08:04.581Z,54.15
2023-02-25T20:10:32.574Z,54.99
2023-02-25T20:13:00.620Z,54.42
2023-02-25T20:15:28.643Z,54.99
2023-02-25T20:17:58.080Z,53.76
2023-02-25T20:20:26.365Z,53.27
2023-02-25T20:22:54.435Z,53.71
2023-02-25T20:25:24.132Z,53.37
2023-02-25T20:27:52.310Z,53.89
2023-02-25T20:30:20.596Z,53.61
2023-02-25T20:32:48.768Z,53.42
2023-02-25T20:35:21.259Z,52.97
2023-02-25T20:38:08.816Z,52.78
2023-02-25T20:40:38.615Z,52.33
2023-02-25T20:43:06.927Z,52.92
2023-02-25T20:45:36.029Z,53.52
2023-02-25T20:48:05.281Z,52.57
2023-02-25T20:50:34.044Z,53.55
2023-02-25T20:53:02.460Z,53.01
2023-02-25T20:55:30.612Z,53.34
2023-02-25T20:57:59.985Z,53.67
2023-02-25T21:00:28.416Z,53.10
2023-02-25T21:02:56.389Z,53.55
2023-02-25T21:05:24.432Z,53.19
2023-02-25T21:07:52.646Z,52.28
2023-02-25T21:10:20.923Z,52.76
2023-02-25T21:12:48.928Z,52.19
2023-02-25T21:15:18.708Z,52.40
2023-02-25T21:17:47.931Z,52.24
2023-02-25T21:20:16.110Z,52.39
2023-02-25T21:22:44.161Z,51.99
2023-02-25T21:25:12.188Z,52.81
2023-02-25T21:27:40.262Z,51.85
2023-02-25T21:30:10.250Z,51.00
2023-02-25T21:32:39.624Z,51.47
2023-02-25T21:35:08.977Z,51.99
2023-02-25T21:37:37.095Z,51.15
2023-02-25T21:40:05.962Z,52.01
2023-02-25T21:42:34.780Z,52.50
2023-02-25T21:45:03.692Z,52.06
2023-02-25T21:47:31.703Z,51.86
2023-02-25T21:50:01.040Z,51.10
2023-02-25T21:52:29.402Z,51.59
2023-02-25T21:54:57.431Z,51.38
2023-02-25T21:57:25.458Z,50.60
2023-02-25T21:59:53.718Z,50.23
2023-02-25T22:02:21.906Z,50.93
2023-02-25T22:04:49.965Z,51.35
2023-02-25T22:07:19.307Z,51.06
2023-02-25T22:09:47.428Z,51.07
2023-02-25T22:12:15.766Z,50.06
2023-02-25T22:14:43.771Z,50.19
2023-02-25T22:17:35.925Z,50.32
2023-02-25T22:20:04.030Z,51.09
2023-02-25T22:22:33.440Z,51.01
2023-02-25T22:25:01.720Z,51.32
2023-02-25T22:27:29.745Z,51.46
2023-02-25T22:29:57.892Z,51.22
2023-02-25T22:32:26.015Z,50.58
2023-02-25T22:34:54.104Z,51.36
2023-02-25T22:37:22.676Z,50.73
2023-02-25T22:39:51.996Z,51.13
2023-02-25T22:42:20.063Z,49.90
2023-02-25T22:44:48.061Z,50.87
2023-02-25T22:47:16.076Z,49.86
2023-02-25T22:49:44.211Z,50.46
2023-02-25T22:52:12.410Z,51.04
2023-02-25T22:54:40.388Z,51.12
2023-02-25T22:57:10.214Z,50.19
2023-02-25T22:59:39.383Z,50.65
2023-02-25T23:02:07.399Z,51.62
2023-02-25T23:04:35.565Z,50.80
2023-02-25T23:07:03.593Z,50.12
2023-02-25T23:09:31.721Z,51.06
2023-02-25T23:12:00.431Z,51.22
2023-02-25T23:14:29.794Z,50.18
2023-02-25T23:16:58.096Z,50.37
2023-02-25T23:19:26.527Z,50.52
2023-02-25T23:21:54.569Z,50.94
2023-02-25T23:24:22.675Z,50.86
2023-02-25T23:26:53.591Z,51.02
2023-02-25T23:29:22.242Z,51.06
2023-02-25T23:31:51.817Z,50.33
2023-02-25T23:34:23.803Z,49.38
2023-02-25T23:36:55.344Z,50.88
2023-02-25T23:39:23.856Z,50.20
2023-02-25T23:41:51.841Z,51.03
2023-02-25T23:44:19.905Z,51.18
2023-02-25T23:46:47.953Z,50.99
2023-02-25T23:49:18.696Z,50.67
2023-02-25T23:51:49.132Z,50.24
2023-02-25T23:54:20.721Z,51.21
2023-02-25T23:56:49.539Z,51.36
2023-02-25T23:59:18.026Z,51.07
